createdAt,value
2022-08-05T00:00:46.449Z,48.59
2022-08-05T00:03:18.085Z,48.66
2022-08-05T00:06:04.935Z,48.68
2022-08-05T00:08:36.141Z,48.77
2022-08-05T00:11:20.498Z,48.80
2022-08-05T00:13:53.044Z,48.74
2022-08-05T00:16:35.652Z,48.83
2022-08-05T00:19:05.130Z,48.96
2022-08-05T00:21:36.034Z,49.10
2022-08-05T00:24:10.756Z,49.14
2022-08-05T00:26:39.319Z,49.12
2022-08-05T00:29:18.582Z,49.19
2022-08-05T00:32:10.632Z,49.28
2022-08-05T00:34:57.051Z,49.45
2022-08-05T00:37:50.510Z,49.50
2022-08-05T00:40:17.885Z,49.59
2022-08-05T00:42:57.915Z,49.74
2022-08-05T00:45:38.765Z,49.73
2022-08-05T00:48:17.400Z,49.98
2022-08-05T00:50:47.453Z,49.95
2022-08-05T00:54:00.439Z,50.13
2022-08-05T00:56:07.750Z,50.25
2022-08-05T00:58:36.882Z,50.14
2022-08-05T01:01:08.660Z,50.16
2022-08-05T01:03:38.644Z,50.20
2022-08-05T01:06:14.105Z,50.36
2022-08-05T01:08:44.844Z,50.24
2022-08-05T01:11:21.843Z,50.46
2022-08-05T01:14:18.218Z,50.51
2022-08-05T01:17:07.193Z,50.56
2022-08-05T01:20:00.801Z,50.55
2022-08-05T01:22:52.471Z,50.68
2022-08-05T01:25:54.695Z,50.82
2022-08-05T01:28:39.295Z,50.87
2022-08-05T01:31:44.535Z,50.95
2022-08-05T01:34:26.677Z,51.06
2022-08-05T01:37:09.387Z,51.17
2022-08-05T01:39:47.863Z,51.22
2022-08-05T01:42:18.018Z,51.21
2022-08-05T01:44:53.861Z,51.19
2022-08-05T01:47:24.117Z,51.21
2022-08-05T01:50:01.885Z,51.25
2022-08-05T01:52:32.386Z,51.32
2022-08-05T01:55:04.457Z,51.31
2022-08-05T01:58:09.266Z,51.25
2022-08-05T02:00:30.407Z,51.40
2022-08-05T02:03:03.622Z,51.38
2022-08-05T02:05:34.342Z,51.37
2022-08-05T02:08:04.627Z,51.50
2022-08-05T02:10:54.127Z,51.37
2022-08-05T02:13:48.803Z,51.56
2022-08-05T02:16:28.446Z,51.53
2022-08-05T02:19:07.044Z,51.74
2022-08-05T02:21:40.331Z,51.72
2022-08-05T02:24:17.812Z,51.83
2022-08-05T02:26:51.862Z,51.75
2022-08-05T02:29:58.027Z,51.95
2022-08-05T02:32:12.880Z,52.06
2022-08-05T02:34:54.595Z,52.12
2022-08-05T02:37:24.335Z,52.14
2022-08-05T02:39:53.880Z,52.14
2022-08-05T02:42:26.067Z,52.16
2022-08-05T02:44:57.231Z,52.39
2022-08-05T02:47:26.063Z,52.29
2022-08-05T02:50:14.800Z,52.49
2022-08-05T02:52:46.870Z,52.63
2022-08-05T02:55:17.566Z,52.53
2022-08-05T02:58:10.072Z,52.76
2022-08-05T03:00:41.165Z,52.85
2022-08-05T03:03:17.041Z,52.99
2022-08-05T03:06:55.219Z,53.22
2022-08-05T03:08:36.328Z,53.35
2022-08-05T03:11:57.675Z,53.20
2022-08-05T03:14:02.762Z,53.26
2022-08-05T03:16:31.828Z,53.33
2022-08-05T03:19:06.479Z,53.46
2022-08-05T03:21:49.522Z,53.33
2022-08-05T03:24:29.497Z,53.32
2022-08-05T03:26:59.570Z,53.31
2022-08-05T03:29:45.283Z,53.61
2022-08-05T03:32:15.848Z,53.61
2022-08-05T03:34:50.496Z,53.67
2022-08-05T03:37:21.099Z,53.78
2022-08-05T03:39:59.176Z,53.81
2022-08-05T03:42:29.062Z,53.94
2022-08-05T03:44:57.326Z,53.79
2022-08-05T03:47:25.688Z,53.74
2022-08-05T03:50:03.636Z,54.08
2022-08-05T03:54:59.177Z,53.96
2022-08-05T03:56:09.645Z,54.29
2022-08-05T03:58:29.298Z,54.40
2022-08-05T04:00:57.177Z,54.48
2022-08-05T04:03:29.490Z,54.34
2022-08-05T04:05:59.049Z,54.53
2022-08-05T04:08:35.072Z,54.39
2022-08-05T04:11:08.563Z,54.30
2022-08-05T04:13:50.859Z,54.34
2022-08-05T04:16:25.152Z,54.19
2022-08-05T04:18:54.772Z,54.13
2022-08-05T04:22:09.129Z,54.18
2022-08-05T04:24:18.625Z,54.33
2022-08-05T04:26:47.744Z,54.35
2022-08-05T04:29:15.701Z,54.22
2022-08-05T04:31:43.656Z,54.27
2022-08-05T04:34:31.573Z,54.20
2022-08-05T04:36:59.562Z,54.13
2022-08-05T04:39:29.020Z,54.33
2022-08-05T04:41:56.959Z,54.31
2022-08-05T04:44:30.254Z,54.21
2022-08-05T04:46:59.405Z,54.19
2022-08-05T04:49:38.498Z,54.02
2022-08-05T04:52:16.310Z,53.76
2022-08-05T04:54:44.993Z,53.90
2022-08-05T04:57:12.954Z,53.85
2022-08-05T04:59:41.362Z,53.75
2022-08-05T05:02:37.255Z,53.79
2022-08-05T05:05:01.756Z,53.75
2022-08-05T05:07:32.721Z,53.95
2022-08-05T05:10:06.449Z,53.71
2022-08-05T05:12:36.669Z,53.83
2022-08-05T05:15:05.959Z,53.81
2022-08-05T05:17:56.335Z,53.76
2022-08-05T05:20:28.725Z,53.55
2022-08-05T05:22:58.238Z,53.55
2022-08-05T05:25:40.365Z,53.39
2022-08-05T05:28:10.122Z,53.30
2022-08-05T05:30:41.074Z,53.11
2022-08-05T05:33:16.883Z,53.17
2022-08-05T05:35:47.429Z,53.08
2022-08-05T05:38:22.806Z,52.87
2022-08-05T05:40:56.996Z,52.84
2022-08-05T05:43:54.645Z,52.76
2022-08-05T05:46:17.552Z,52.48
2022-08-05T05:48:48.687Z,52.55
2022-08-05T05:51:25.705Z,52.32
2022-08-05T05:53:58.545Z,52.29
2022-08-05T05:56:32.806Z,52.34
2022-08-05T05:59:07.687Z,52.08
2022-08-05T06:01:39.504Z,52.04
2022-08-05T06:04:11.761Z,51.74
2022-08-05T06:06:42.054Z,51.49
2022-08-05T06:09:17.334Z,51.16
2022-08-05T06:12:02.080Z,50.96
2022-08-05T06:14:31.669Z,50.75
2022-08-05T06:17:01.965Z,50.70
2022-08-05T06:19:56.701Z,50.27
2022-08-05T06:22:33.528Z,50.08
2022-08-05T06:25:59.095Z,50.15
2022-08-05T06:28:11.032Z,50.30
2022-08-05T06:30:41.344Z,49.94
2022-08-05T06:33:10.076Z,49.79
2022-08-05T06:36:07.066Z,49.18
2022-08-05T06:38:36.223Z,49.08
2022-08-05T06:41:08.106Z,49.10
2022-08-05T06:43:51.519Z,48.78
2022-08-05T06:46:30.118Z,48.53
2022-08-05T06:49:01.153Z,48.23
2022-08-05T06:51:31.234Z,48.57
2022-08-05T06:54:02.040Z,48.11
2022-08-05T06:56:34.237Z,48.01
2022-08-05T06:59:09.360Z,48.06
2022-08-05T07:01:40.716Z,47.80
2022-08-05T07:04:10.478Z,47.60
2022-08-05T07:06:38.487Z,47.06
2022-08-05T07:09:06.442Z,46.58
2022-08-05T07:11:36.919Z,46.15
2022-08-05T07:14:30.231Z,46.44
2022-08-05T07:17:59.946Z,45.88
2022-08-05T07:22:42.340Z,44.80
2022-08-05T07:25:54.307Z,44.74
2022-08-05T07:28:05.971Z,44.79
2022-08-05T07:30:38.816Z,44.69
2022-08-05T07:33:16.621Z,44.01
2022-08-05T07:36:04.201Z,43.68
2022-08-05T07:38:43.654Z,42.62
2022-08-05T07:42:07.861Z,42.70
2022-08-05T07:44:14.488Z,42.36
2022-08-05T07:46:49.278Z,42.45
2022-08-05T07:49:18.850Z,41.95
2022-08-05T07:51:54.684Z,41.74
2022-08-05T07:54:31.373Z,41.30
2022-08-05T07:57:18.067Z,40.73
2022-08-05T07:59:51.801Z,40.90
2022-08-05T08:02:26.706Z,40.64
2022-08-05T08:05:01.063Z,39.96
2022-08-05T08:07:29.304Z,39.75
2022-08-05T08:10:08.347Z,39.48
2022-08-05T08:12:49.268Z,39.70
2022-08-05T08:15:17.945Z,38.99
2022-08-05T08:18:13.842Z,39.46
2022-08-05T08:21:02.114Z,39.15
2022-08-05T08:24:01.104Z,38.81
2022-08-05T08:26:26.818Z,38.41
2022-08-05T08:29:21.780Z,38.02
2022-08-05T08:31:50.842Z,37.89
2022-08-05T08:34:30.614Z,37.97
2022-08-05T08:37:05.307Z,36.87
2022-08-05T08:39:37.115Z,36.34
2022-08-05T08:42:32.430Z,34.67
2022-08-05T08:45:23.067Z,34.41
2022-08-05T08:48:05.860Z,33.09
2022-08-05T08:51:22.493Z,33.95
2022-08-05T08:53:25.461Z,33.75
2022-08-05T08:56:04.899Z,31.83
2022-08-05T08:58:43.875Z,30.85
2022-08-05T09:01:18.128Z,30.69
2022-08-05T09:03:54.623Z,30.69
2022-08-05T09:06:28.217Z,30.79
2022-08-05T09:09:00.688Z,29.90
2022-08-05T09:11:52.531Z,30.20
2022-08-05T09:14:58.881Z,30.37
2022-08-05T09:17:16.084Z,30.15
2022-08-05T09:20:04.709Z,30.44
2022-08-05T09:23:05.107Z,29.96
2022-08-05T09:26:03.018Z,30.03
2022-08-05T09:28:24.479Z,29.62
2022-08-05T09:31:43.490Z,29.74
2022-08-05T09:34:02.899Z,29.43
2022-08-05T09:36:55.961Z,29.38
2022-08-05T09:39:41.361Z,28.75
2022-08-05T09:42:24.452Z,28.74
2022-08-05T09:45:03.339Z,28.46
2022-08-05T09:47:55.660Z,26.57
2022-08-05T09:50:38.043Z,26.48
2022-08-05T09:53:07.044Z,26.99
2022-08-05T09:55:56.965Z,27.02
2022-08-05T09:58:25.899Z,26.97
2022-08-05T10:01:01.415Z,26.90
2022-08-05T10:03:56.874Z,26.37
2022-08-05T10:06:19.581Z,25.92
2022-08-05T10:08:53.936Z,25.96
2022-08-05T10:11:24.337Z,25.04
2022-08-05T10:13:59.475Z,25.38
2022-08-05T10:16:29.950Z,25.65
2022-08-05T10:18:58.374Z,25.26
2022-08-05T10:21:27.535Z,24.90
2022-08-05T10:24:07.558Z,25.28
2022-08-05T10:26:51.359Z,24.67
2022-08-05T10:30:05.794Z,23.90
2022-08-05T10:32:53.121Z,24.17
2022-08-05T10:35:00.616Z,24.15
2022-08-05T10:37:41.303Z,23.14
2022-08-05T10:40:27.733Z,23.66
2022-08-05T10:43:04.679Z,22.71
2022-08-05T10:45:40.009Z,21.74
2022-08-05T10:48:39.509Z,21.80
2022-08-05T10:51:28.298Z,21.35
2022-08-05T10:54:01.058Z,21.53
2022-08-05T10:56:43.983Z,21.64
2022-08-05T11:00:03.102Z,22.48
2022-08-05T11:02:14.716Z,22.84
2022-08-05T11:05:00.269Z,22.87
2022-08-05T11:07:32.871Z,23.50
2022-08-05T11:10:27.425Z,23.61
2022-08-05T11:12:57.335Z,23.21
2022-08-05T11:16:00.209Z,23.41
2022-08-05T11:18:32.335Z,23.42
2022-08-05T11:21:02.990Z,23.21
2022-08-05T11:24:04.140Z,23.09
2022-08-05T11:26:43.326Z,23.21
2022-08-05T11:29:40.239Z,22.66
2022-08-05T11:32:40.567Z,21.62
2022-08-05T11:35:08.470Z,21.54
2022-08-05T11:38:30.517Z,21.24
2022-08-05T11:41:00.858Z,21.22
2022-08-05T11:44:05.113Z,21.27
2022-08-05T11:46:33.314Z,21.26
2022-08-05T11:49:02.822Z,21.18
2022-08-05T11:51:44.274Z,21.49
2022-08-05T11:54:33.445Z,21.68
2022-08-05T11:57:08.178Z,20.28
2022-08-05T11:59:53.440Z,20.85
2022-08-05T12:02:31.167Z,19.99
2022-08-05T12:05:06.730Z,19.93
2022-08-05T12:08:09.295Z,20.25
2022-08-05T12:10:43.732Z,20.09
2022-08-05T12:13:18.466Z,20.74
2022-08-05T12:15:56.120Z,20.92
2022-08-05T12:18:34.738Z,20.15
2022-08-05T12:21:11.662Z,19.84
2022-08-05T12:23:43.006Z,20.05
2022-08-05T12:26:11.315Z,19.57
2022-08-05T12:28:39.531Z,19.77
2022-08-05T12:31:07.507Z,19.71
2022-08-05T12:33:37.099Z,19.36
2022-08-05T12:36:09.140Z,19.32
2022-08-05T12:38:39.721Z,19.78
2022-08-05T12:41:13.901Z,19.37
2022-08-05T12:43:53.642Z,19.20
2022-08-05T12:46:29.487Z,18.60
2022-08-05T12:49:01.642Z,18.86
2022-08-05T12:52:14.331Z,18.55
2022-08-05T12:54:33.198Z,18.24
2022-08-05T12:57:04.205Z,17.59
2022-08-05T13:01:58.099Z,17.93
2022-08-05T13:02:41.458Z,17.65
2022-08-05T13:05:12.660Z,18.20
2022-08-05T13:08:00.557Z,18.39
2022-08-05T13:10:32.020Z,17.93
2022-08-05T13:13:00.762Z,17.22
2022-08-05T13:15:41.062Z,17.00
2022-08-05T13:18:10.896Z,16.75
2022-08-05T13:20:49.252Z,17.12
2022-08-05T13:23:22.541Z,16.91
2022-08-05T13:25:59.299Z,16.71
2022-08-05T13:28:32.123Z,16.73
2022-08-05T13:31:11.002Z,16.65
2022-08-05T13:34:25.078Z,16.55
2022-08-05T13:36:31.619Z,16.46
2022-08-05T13:38:59.612Z,16.42
2022-08-05T13:41:35.841Z,16.04
2022-08-05T13:44:06.068Z,16.10
2022-08-05T13:46:50.976Z,16.23
2022-08-05T13:49:22.011Z,16.48
2022-08-05T13:51:49.931Z,16.47
2022-08-05T13:54:24.923Z,16.05
2022-08-05T13:56:53.733Z,15.87
2022-08-05T13:59:24.186Z,15.40
2022-08-05T14:01:58.063Z,15.56
2022-08-05T14:04:51.856Z,15.57
2022-08-05T14:07:56.510Z,15.67
2022-08-05T14:10:19.270Z,15.53
2022-08-05T14:12:57.238Z,15.30
2022-08-05T14:16:07.706Z,15.17
2022-08-05T14:18:18.485Z,14.89
2022-08-05T14:20:54.512Z,15.08
2022-08-05T14:23:25.819Z,14.44
2022-08-05T14:25:58.805Z,14.12
2022-08-05T14:28:29.641Z,13.83
2022-08-05T14:30:59.327Z,14.18
2022-08-05T14:33:32.586Z,13.65
2022-08-05T14:36:21.275Z,13.87
2022-08-05T14:38:51.030Z,13.89
2022-08-05T14:41:19.359Z,13.20
2022-08-05T14:43:57.673Z,12.92
2022-08-05T14:46:31.811Z,13.11
2022-08-05T14:49:07.393Z,12.92
2022-08-05T14:51:38.074Z,12.56
2022-08-05T14:54:26.596Z,12.34
2022-08-05T14:56:55.891Z,12.05
2022-08-05T14:59:23.909Z,11.86
2022-08-05T15:01:52.714Z,11.52
2022-08-05T15:04:22.679Z,11.47
2022-08-05T15:06:51.312Z,11.35
2022-08-05T15:09:51.387Z,11.26
2022-08-05T15:12:09.529Z,11.75
2022-08-05T15:14:48.205Z,11.73
2022-08-05T15:17:44.774Z,11.31
2022-08-05T15:20:18.207Z,11.22
2022-08-05T15:22:54.442Z,11.37
2022-08-05T15:25:51.389Z,11.45
2022-08-05T15:28:13.336Z,11.86
2022-08-05T15:30:45.836Z,11.85
2022-08-05T15:34:05.979Z,11.66
2022-08-05T15:36:04.825Z,11.70
2022-08-05T15:38:41.021Z,12.00
2022-08-05T15:41:22.758Z,11.54
2022-08-05T15:43:55.026Z,11.43
2022-08-05T15:46:24.063Z,11.03
2022-08-05T15:49:00.675Z,11.15
2022-08-05T15:52:10.344Z,11.02
2022-08-05T15:54:18.728Z,11.45
2022-08-05T15:56:47.184Z,11.03
2022-08-05T15:59:21.923Z,11.36
2022-08-05T16:01:53.290Z,11.94
2022-08-05T16:04:25.247Z,12.99
2022-08-05T16:06:55.480Z,13.45
2022-08-05T16:09:24.892Z,13.53
2022-08-05T16:11:54.078Z,13.80
2022-08-05T16:14:23.176Z,14.44
2022-08-05T16:16:51.355Z,15.22
2022-08-05T16:20:03.707Z,16.29
2022-08-05T16:22:10.804Z,17.09
2022-08-05T16:24:41.567Z,17.86
2022-08-05T16:27:47.323Z,18.64
2022-08-05T16:30:23.088Z,19.73
2022-08-05T16:32:54.341Z,19.90
2022-08-05T16:35:28.039Z,19.37
2022-08-05T16:38:02.025Z,20.00
2022-08-05T16:40:39.866Z,20.21
2022-08-05T16:43:08.117Z,20.40
2022-08-05T16:46:07.662Z,21.22
2022-08-05T16:48:33.978Z,21.97
2022-08-05T16:51:09.390Z,23.22
2022-08-05T16:54:04.897Z,23.35
2022-08-05T16:56:30.547Z,24.75
2022-08-05T16:58:58.980Z,24.67
2022-08-05T17:01:29.033Z,24.90
2022-08-05T17:04:16.971Z,24.86
2022-08-05T17:06:52.964Z,25.28
2022-08-05T17:09:23.157Z,25.31
2022-08-05T17:11:55.946Z,25.80
2022-08-05T17:14:37.084Z,26.18
2022-08-05T17:17:09.417Z,26.42
2022-08-05T17:19:45.458Z,25.33
2022-08-05T17:22:24.754Z,25.45
2022-08-05T17:24:57.691Z,25.88
2022-08-05T17:27:33.766Z,24.32
2022-08-05T17:30:12.122Z,24.15
2022-08-05T17:32:46.952Z,25.02
2022-08-05T17:35:20.983Z,25.45
2022-08-05T17:37:49.368Z,25.97
2022-08-05T17:40:22.473Z,26.52
2022-08-05T17:42:52.906Z,27.38
2022-08-05T17:45:23.126Z,28.15
2022-08-05T17:47:55.444Z,28.87
2022-08-05T17:50:30.515Z,29.27
2022-08-05T17:53:00.871Z,29.93
2022-08-05T17:55:37.437Z,30.32
2022-08-05T17:58:09.821Z,30.83
2022-08-05T18:00:44.925Z,31.12
2022-08-05T18:03:28.003Z,31.54
2022-08-05T18:06:11.275Z,31.96
2022-08-05T18:08:44.577Z,32.54
2022-08-05T18:11:23.265Z,32.95
2022-08-05T18:13:53.010Z,33.46
2022-08-05T18:16:21.838Z,33.42
2022-08-05T18:18:50.855Z,33.78
2022-08-05T18:21:23.038Z,34.11
2022-08-05T18:23:54.816Z,34.28
2022-08-05T18:26:27.739Z,34.81
2022-08-05T18:28:57.723Z,34.99
2022-08-05T18:31:26.107Z,35.15
2022-08-05T18:34:02.956Z,35.37
2022-08-05T18:36:31.340Z,35.56
2022-08-05T18:38:59.464Z,36.01
2022-08-05T18:41:58.336Z,36.18
2022-08-05T18:44:15.510Z,36.55
2022-08-05T18:47:01.752Z,36.69
2022-08-05T18:49:57.813Z,36.94
2022-08-05T18:52:41.615Z,36.96
2022-08-05T18:55:20.281Z,36.91
2022-08-05T18:57:53.944Z,37.18
2022-08-05T19:00:29.647Z,37.16
2022-08-05T19:03:03.766Z,37.10
2022-08-05T19:06:12.713Z,37.10
2022-08-05T19:08:30.503Z,37.36
2022-08-05T19:11:04.639Z,37.38
2022-08-05T19:13:36.789Z,37.65
2022-08-05T19:16:22.083Z,38.01
2022-08-05T19:18:56.810Z,38.12
2022-08-05T19:21:34.418Z,38.46
2022-08-05T19:24:09.053Z,38.44
2022-08-05T19:26:43.909Z,39.10
2022-08-05T19:29:36.366Z,38.75
2022-08-05T19:32:08.645Z,39.20
2022-08-05T19:34:40.685Z,39.40
2022-08-05T19:37:10.616Z,39.64
2022-08-05T19:39:45.554Z,39.72
2022-08-05T19:42:26.336Z,40.34
2022-08-05T19:45:05.925Z,40.51
2022-08-05T19:47:37.473Z,40.70
2022-08-05T19:50:07.865Z,41.10
2022-08-05T19:52:38.775Z,41.03
2022-08-05T19:56:14.955Z,41.34
2022-08-05T19:58:19.796Z,41.61
2022-08-05T20:00:44.374Z,41.62
2022-08-05T20:03:12.470Z,41.83
2022-08-05T20:05:50.150Z,41.97
2022-08-05T20:08:20.418Z,41.82
2022-08-05T20:10:53.356Z,42.09
2022-08-05T20:13:29.988Z,42.19
2022-08-05T20:16:11.076Z,42.34
2022-08-05T20:18:40.012Z,42.76
2022-08-05T20:21:08.675Z,42.56
2022-08-05T20:23:50.155Z,42.90
2022-08-05T20:26:21.262Z,42.91
2022-08-05T20:28:55.650Z,42.91
2022-08-05T20:31:37.000Z,43.24
2022-08-05T20:34:14.579Z,43.50
2022-08-05T20:36:44.502Z,43.44
2022-08-05T20:39:16.223Z,43.61
2022-08-05T20:41:47.780Z,44.06
2022-08-05T20:44:30.511Z,44.01
2022-08-05T20:47:03.286Z,44.03
2022-08-05T20:49:33.220Z,44.14
2022-08-05T20:52:10.714Z,44.40
2022-08-05T20:54:42.643Z,44.49
2022-08-05T20:57:43.723Z,44.41
2022-08-05T21:00:40.682Z,44.60
2022-08-05T21:03:06.283Z,44.72
2022-08-05T21:05:48.034Z,44.91
2022-08-05T21:08:28.031Z,44.69
2022-08-05T21:11:10.108Z,45.36
2022-08-05T21:13:55.544Z,45.34
2022-08-05T21:16:29.963Z,45.87
2022-08-05T21:19:00.879Z,46.11
2022-08-05T21:21:44.545Z,45.86
2022-08-05T21:24:19.401Z,46.20
2022-08-05T21:26:53.761Z,46.85
2022-08-05T21:29:31.767Z,47.76
2022-08-05T21:32:02.263Z,49.42
2022-08-05T21:34:31.723Z,51.16
2022-08-05T21:37:01.060Z,52.88
2022-08-05T21:39:29.966Z,53.97
2022-08-05T21:42:01.006Z,54.47
2022-08-05T21:44:30.276Z,54.92
2022-08-05T21:46:59.352Z,55.52
2022-08-05T21:49:59.450Z,56.00
2022-08-05T21:52:27.300Z,56.34
2022-08-05T21:54:57.826Z,57.33
2022-08-05T21:57:35.858Z,58.18
2022-08-05T22:00:11.131Z,59.04
2022-08-05T22:02:42.856Z,59.39
2022-08-05T22:05:15.248Z,59.85
2022-08-05T22:07:59.442Z,60.05
2022-08-05T22:10:30.968Z,60.42
2022-08-05T22:13:09.199Z,60.77
2022-08-05T22:16:01.028Z,61.27
2022-08-05T22:18:35.787Z,61.39
2022-08-05T22:21:19.141Z,61.51
2022-08-05T22:24:08.937Z,61.64
2022-08-05T22:27:16.598Z,61.88
2022-08-05T22:29:46.072Z,62.60
2022-08-05T22:32:17.375Z,62.79
2022-08-05T22:34:45.696Z,62.93
2022-08-05T22:37:14.195Z,62.43
2022-08-05T22:39:42.119Z,62.06
2022-08-05T22:42:15.316Z,62.07
2022-08-05T22:44:48.662Z,61.83
2022-08-05T22:47:29.812Z,61.83
2022-08-05T22:50:20.045Z,61.28
2022-08-05T22:52:52.538Z,60.78
2022-08-05T22:55:22.416Z,60.45
2022-08-05T22:57:51.674Z,60.66
2022-08-05T23:00:21.727Z,60.83
2022-08-05T23:02:52.217Z,61.20
2022-08-05T23:05:22.281Z,61.15
2022-08-05T23:07:52.137Z,61.07
2022-08-05T23:10:24.008Z,60.65
2022-08-05T23:12:54.473Z,60.38
2022-08-05T23:15:29.377Z,60.42
2022-08-05T23:18:03.271Z,60.32
2022-08-05T23:20:33.206Z,60.70
2022-08-05T23:23:05.958Z,60.83
2022-08-05T23:25:52.295Z,61.26
2022-08-05T23:28:28.587Z,61.73
2022-08-05T23:31:15.869Z,61.80
2022-08-05T23:34:05.356Z,62.10
2022-08-05T23:36:39.710Z,62.15
2022-08-05T23:39:17.260Z,62.24
2022-08-05T23:42:00.519Z,62.38
2022-08-05T23:44:31.580Z,62.25
2022-08-05T23:47:14.400Z,62.10
2022-08-05T23:49:46.657Z,62.07
2022-08-05T23:52:27.518Z,61.94
2022-08-05T23:55:08.957Z,61.80
2022-08-05T23:57:37.330Z,61.70
